Aérodrome :
LOGIN :

S'inscrire | Disclaimer

   EN    FR    IT 

 










Légende :    VFR   VFR Marginal   IFR   IFR Intensif   IFR Très Intensif
Visi : 
Plafond : 
>= 8 km
>= 3000ft
5 à 8 km
1000 à 3000 ft
1500m à 5 km
500 à 1000 ft
800 à 1500m
200 à 500 ft
< 800m
< 200 ft
Symboles :   Orages  Brouillard  Fortes neiges  Fortes précipitations  Vent > 20 kt
SIGMETs :   Divers  Orages  Givrage  Turbulence  Onde Orograph.  Cendres Volcan.







- Altitude de l'aérodrome : 659 ft
- Code IATA : LGG


EBLG - Liège

DERNIER METAR :
  • 210620Z 23007KT 9999 BKN015 16/13 Q1020 NOSIG

METARs EXPIRÉS :
  • 210550Z 23008KT 9999 SCT015 16/13 Q1020 TEMPO BKN012
  • 210520Z 23008KT 9999 SCT015 15/13 Q1019 TEMPO BKN012
  • 210450Z 24007KT 9999 BKN017 15/13 Q1019 TEMPO BKN012
  • 210420Z 23008KT 9999 BKN017 15/13 Q1019 TEMPO BKN012
  • 210350Z 23008KT 9999 FEW020 15/13 Q1018 NOSIG

TAF TAF EBLG
Valide du 21 à 06h jusqu'au 22 à 12h UTC


210510Z 2106/2212 24007KT 9999 FEW025 SCT045
Pas de NOTAMs connus pour ce terrain.



MET'MAP, la Météo Aéronautique d'un coup d'oeil ! - Copyright ORBIFLY Décembre 2007 - Disclaimer

ORBIFLY MET'MAP TEAM :

Programmation & Développement : Alexandra Zaïnal
Conception & Développement : Baudouin d'Aumeries
Co-Programmation & Développement : Marc-Olivier Méhu
Soutien technique & logistique : Manuel Goepfert

Contact : metmap@orbifly.com




SOURCES & CREDITS :

   NOAA